Scroll down
FLIGHT INFORMATION
Federal Express (FedEx)

FDX10

At Arrival Gate

LFPG
 RJAA
DATE: 2021-08-07
GATE: 
GATE DEPARTURE: 21:40
TAKEOFF: 21:57
DATE: 2021-08-08
GATE:  -
LANDING: 10:36
GATE ARRIVAL: 10:41
FLIGHT DATA
Crew: 
Speed: 
505 kts
Altitude: 
37,124 ft
Stage Length: 
5,243.1 nm
Block Time: 
13 hrs
Flight Time: 
12.6 hrs
Fuel Used: 
222,353 lb
Cleared Route: LFPG RANUX MEDOX VALEK LIPNI LIMGO MASEK ERSIL SUBIX GORAT TOBLO ABUTO UNIGA MAKOD TALID UBONA BEPLU OKLOT RONUM UMSIS OLBEG RUTUB GEDNI AMUTI ST WGD TUSAB NOKLI DUBOS OLINU UP ZG OBATA TUGLA ATR BASPU EPOLI LANIN ODPUT LUKET UDATO RUGUS ARSAN ATRIK BALPI ABIGU ULRIP SUBOL ARMIK DZG AGAKO MADEV AGARO BUSAR GOMAL BURID GILAK SARIN TCH PIBIG SALMO OMKEN IKARA UGPEL VARMI FKG ADPET ESGIV DAKPA RIMDU BATUS LIKMI GOVSA JNQ GOBIN ATBUG DKO EGILO DUDIL MOSPA TOREL BAXOD UBSEV URDOG UXODI LUGVU UPSUR BIKUT GUVBA HUR SOTMU LADIX CG MUGLO OTBUL VAPGU MUDOT ORAVA UNSEK ALARA MAKNO NUNDU DOBGA POVAG SANKO OBDIS DONVO AGAVO RILRO GONAV BODOL REBIT BELTU BOGAN MONSI POLEG EGOBA KARBU TORUS BIKSI KAE PILIT NIMUS AGSUS LANAT DISSH SAMON ZUWAI OTARI HAKKA IKAHO MAUKA YAGAN SYOEN LIVET ESKAS ENTAK GURIP SWAMP RJAA
TRACK DATA
50,000 ft 1,000 kts
AIRCRAFT INFO AND CUMULATIVE STATS
Aircraft Type: 
B77LF
Registration: 
SELCAL: 
FRJP
MSN/LN: 
37733 / 975
Total Flights: 
4
Total Block Time: 
18.3 hrs
Total Flight Time: 
17.6 hrs
Total Fuel Used: 
303,702 lb
DATALINK LOG | Newest first | Current as of: 2022-09-30 00:48:59
LABEL SEQUENCE CONTENT Dn/Up
QD564310:41 26▼ Dn
QC513810:36▼ Dn
2U5850RJAA 072337Z 03013KT 6000 R34L/P2000N R34R/2000N SHRA FEW003 BKN006 BKN015 26/25 Q0998 WS R34L RMK 1ST003 5ST006 7CU015 A2950 WS PS 20KT OBS AT 2322Z ON FNA RWY34L 2000FT IN DES B763▲ Up
2S5850RJAA▼ Dn
5U5550TAF AMD RJAA 072200Z 0722/0900 04014KT 6000 -SHRA FEW005 BKN012 TEMPO 0722/0806 02024G36KT 2000 +SHRA BR FEW003 BKN005 BECMG 0806/0809 32014KT TEMPO 0806/0809 32018G28KT BECMG 0812/0815 20004KT▲ Up
5S5550RJAA▼ Dn
QB133821:57▼ Dn
QA562221:40 248.4▼ Dn
2U3806RJTY 071126Z AUTO 35006KT 10SM BKN027 OVC038 27/25 A2974 RMK AO2 SLP066 FZRANO $▲ Up
2U3806RJAA 071130Z 06006KT 010V110 9999 FEW006 SCT020 BKN/// 27/26 Q1005 BECMG 05006KT RMK 1ST006 3CU020 A2969▲ Up
2U3805LFPG 071130Z 20012KT 9999 SCT016 BKN050 18/16 Q1002 TEMPO 21015G25KT SCT040TCU▲ Up
2S3805LFPG RJAA RJTY▼ Dn
A33211CLEARED TO RJAA VIA RANUX UN858 LIMGO MASEK ERSIL SUBIX GORAT TOBLO M55 ABUTO L749 RONUM N72 UMSIS N72 OLINU A102 UP R710 ZG G487 OBATA L988 ATR L51 DZG N161 AGARO N161 SARIN A368 FKG W188 GOVSA W66 DKO W69 HUR B339 LADIX W34 VAPGU W100 ORAVA W201 UNSEK A326 DONVO G597 AGAVO Y644 EGOBA G597 LANAT Y51 SAMON Y517 HAKKA Y517 ESKAS Y303 ENTAK Y30 SWAMP. SQUAWK 5336.▲ Up
B33200LFPG RJAA FDX10 N862FD L ▼ Dn
Q03059[LINK ACK]▲ Up
Q03059[LINK TEST]▼ Dn


AIRCRAFT HISTORY
FLIGHT DATE FLIGHT NO. ORIGIN DESTINATION CLEARED ROUTE BLOCK TIME FLIGHT TIME FUEL USED PILOT
2021-10-13FDX115RCTP VHHH RCTP TP050 NOVAS DECOY SUMER CHALI VHHH1.5 hrs1.4 hrs20,838 lbAlex K.
2021-10-13FDX114ZSPD RCTP ZSPD HSN HSN TOGUG OLIVE VIOLA BERBA FITCH BESTO COPRA BAKER BAKER RCTP1.2 hrs1.1 hrs16,615 lbAlex K.
2021-10-13FDX113RJAA ZSPD RJAA REDEK IGNOT MITOP BEGUL TEKEL SUNAM KINAI TOKOM HABAR ARIGI BALIE CHINU ISAKY ASOVO CAMAS POTET ONIKU NIRAT PONIK SADLI LAMEN AKARA DUMET ZSPD2.7 hrs2.5 hrs43,896 lbAlex K.
2021-08-07FDX10LFPG RJAA LFPG RANUX MEDOX VALEK LIPNI LIMGO MASEK ERSIL SUBIX GORAT TOBLO ABUTO UNIGA MAKOD TALID UBONA BEPLU OKLOT RONUM UMSIS OLBEG RUTUB GEDNI AMUTI ST WGD TUSAB NOKLI DUBOS OLINU UP ZG OBATA TUGLA ATR BASPU EPOLI LANIN ODPUT LUKET UDATO RUGUS ARSAN ATRIK BALPI ABIGU ULRIP SUBOL ARMIK DZG AGAKO MADEV AGARO BUSAR GOMAL BURID GILAK SARIN TCH PIBIG SALMO OMKEN IKARA UGPEL VARMI FKG ADPET ESGIV DAKPA RIMDU BATUS LIKMI GOVSA JNQ GOBIN ATBUG DKO EGILO DUDIL MOSPA TOREL BAXOD UBSEV URDOG UXODI LUGVU UPSUR BIKUT GUVBA HUR SOTMU LADIX CG MUGLO OTBUL VAPGU MUDOT ORAVA UNSEK ALARA MAKNO NUNDU DOBGA POVAG SANKO OBDIS DONVO AGAVO RILRO GONAV BODOL REBIT BELTU BOGAN MONSI POLEG EGOBA KARBU TORUS BIKSI KAE PILIT NIMUS AGSUS LANAT DISSH SAMON ZUWAI OTARI HAKKA IKAHO MAUKA YAGAN SYOEN LIVET ESKAS ENTAK GURIP SWAMP RJAA13 hrs12.6 hrs222,353 lbAllan Burek